sensor_id;sensor_type;location;lat;lon;timestamp;pressure;altitude;pressure_sealevel;temperature;humidity
7730;BME280;3908;52.310;7.230;2022-08-27T00:00:25;51289.81;;;-145.83;92.29
7730;BME280;3908;52.310;7.230;2022-08-27T00:03:13;51323.06;;;-145.83;92.23
7730;BME280;3908;52.310;7.230;2022-08-27T00:06:01;51336.75;;;-145.83;92.06
7730;BME280;3908;52.310;7.230;2022-08-27T00:08:48;51313.28;;;-145.83;91.94
7730;BME280;3908;52.310;7.230;2022-08-27T00:11:36;51344.59;;;-145.83;91.55
7730;BME280;3908;52.310;7.230;2022-08-27T00:14:23;51321.09;;;-145.83;91.50
7730;BME280;3908;52.310;7.230;2022-08-27T00:17:12;51330.91;;;-145.83;91.43
7730;BME280;3908;52.310;7.230;2022-08-27T00:20:00;51315.25;;;-145.83;91.77
7730;BME280;3908;52.310;7.230;2022-08-27T00:22:48;51291.75;;;-145.83;91.60
7730;BME280;3908;52.310;7.230;2022-08-27T00:25:35;51328.94;;;-145.83;91.63
7730;BME280;3908;52.310;7.230;2022-08-27T00:28:22;51338.72;;;-145.83;91.37
7730;BME280;3908;52.310;7.230;2022-08-27T00:31:10;51325.03;;;-145.83;91.37
7730;BME280;3908;52.310;7.230;2022-08-27T00:33:59;51328.94;;;-145.83;91.26
7730;BME280;3908;52.310;7.230;2022-08-27T00:36:46;51309.38;;;-145.83;90.99
7730;BME280;3908;52.310;7.230;2022-08-27T00:39:34;51287.84;;;-145.83;91.40
7730;BME280;3908;52.310;7.230;2022-08-27T00:42:21;51293.72;;;-145.83;91.15
7730;BME280;3908;52.310;7.230;2022-08-27T00:45:09;51350.47;;;-145.83;90.88
7730;BME280;3908;52.310;7.230;2022-08-27T00:47:58;51317.19;;;-145.83;90.84
7730;BME280;3908;52.310;7.230;2022-08-27T00:50:50;51297.63;;;-145.83;90.38
7730;BME280;3908;52.310;7.230;2022-08-27T00:53:38;51299.59;;;-145.83;90.27
7730;BME280;3908;52.310;7.230;2022-08-27T00:56:28;51330.91;;;-145.83;89.90
7730;BME280;3908;52.310;7.230;2022-08-27T00:59:19;51299.59;;;-145.83;89.65
7730;BME280;3908;52.310;7.230;2022-08-27T01:02:07;51309.38;;;-145.83;89.17
7730;BME280;3908;52.310;7.230;2022-08-27T01:05:08;51356.31;;;-145.83;88.76
7730;BME280;3908;52.310;7.230;2022-08-27T01:08:02;51325.03;;;-145.83;88.44
7730;BME280;3908;52.310;7.230;2022-08-27T01:10:51;51295.69;;;-145.83;88.18
7730;BME280;3908;52.310;7.230;2022-08-27T01:13:39;51299.59;;;-145.83;87.86
7730;BME280;3908;52.310;7.230;2022-08-27T01:16:31;51313.28;;;-145.83;87.54
7730;BME280;3908;52.310;7.230;2022-08-27T01:19:25;51319.16;;;-145.83;86.98
7730;BME280;3908;52.310;7.230;2022-08-27T01:22:24;51315.25;;;-145.83;87.00
7730;BME280;3908;52.310;7.230;2022-08-27T01:25:17;51299.59;;;-145.83;86.50
7730;BME280;3908;52.310;7.230;2022-08-27T01:28:06;51332.84;;;-145.83;86.15
7730;BME280;3908;52.310;7.230;2022-08-27T01:30:53;51295.69;;;-145.83;86.00
7730;BME280;3908;52.310;7.230;2022-08-27T01:33:52;51356.31;;;-145.83;85.86
7730;BME280;3908;52.310;7.230;2022-08-27T01:36:40;51301.53;;;-145.83;85.83
7730;BME280;3908;52.310;7.230;2022-08-27T01:39:27;51301.53;;;-145.83;85.62
7730;BME280;3908;52.310;7.230;2022-08-27T01:42:18;51311.31;;;-145.83;85.32
7730;BME280;3908;52.310;7.230;2022-08-27T01:45:08;51336.75;;;-145.83;85.11
7730;BME280;3908;52.310;7.230;2022-08-27T01:47:56;51321.09;;;-145.83;84.91
7730;BME280;3908;52.310;7.230;2022-08-27T01:50:44;51313.28;;;-145.83;84.55
7730;BME280;3908;52.310;7.230;2022-08-27T01:53:32;51321.09;;;-145.83;84.55
7730;BME280;3908;52.310;7.230;2022-08-27T01:56:19;51340.69;;;-145.83;84.62
7730;BME280;3908;52.310;7.230;2022-08-27T01:59:08;51293.72;;;-145.83;84.53
7730;BME280;3908;52.310;7.230;2022-08-27T02:01:55;51323.06;;;-145.83;84.67
7730;BME280;3908;52.310;7.230;2022-08-27T02:04:43;51301.53;;;-145.83;84.65
7730;BME280;3908;52.310;7.230;2022-08-27T02:07:30;51317.19;;;-145.83;84.64
7730;BME280;3908;52.310;7.230;2022-08-27T02:10:21;51338.72;;;-145.83;84.42
7730;BME280;3908;52.310;7.230;2022-08-27T02:13:09;51326.97;;;-145.83;84.58
7730;BME280;3908;52.310;7.230;2022-08-27T02:15:59;51305.47;;;-145.83;84.65
7730;BME280;3908;52.310;7.230;2022-08-27T02:18:47;51332.84;;;-145.83;84.46
7730;BME280;3908;52.310;7.230;2022-08-27T02:21:34;51319.16;;;-145.83;84.49
7730;BME280;3908;52.310;7.230;2022-08-27T02:24:21;51301.53;;;-145.83;85.08
7730;BME280;3908;52.310;7.230;2022-08-27T02:27:09;51323.06;;;-145.83;84.98
7730;BME280;3908;52.310;7.230;2022-08-27T02:29:56;51330.91;;;-145.83;84.93
7730;BME280;3908;52.310;7.230;2022-08-27T02:32:45;51299.59;;;-145.83;84.89
7730;BME280;3908;52.310;7.230;2022-08-27T02:35:34;51295.69;;;-145.83;85.00
7730;BME280;3908;52.310;7.230;2022-08-27T02:38:23;51325.03;;;-145.83;84.88
7730;BME280;3908;52.310;7.230;2022-08-27T02:41:10;51340.69;;;-145.83;84.81
7730;BME280;3908;52.310;7.230;2022-08-27T02:43:58;51326.97;;;-145.83;84.77
7730;BME280;3908;52.310;7.230;2022-08-27T02:46:45;51313.28;;;-145.83;84.62
7730;BME280;3908;52.310;7.230;2022-08-27T02:49:34;51295.69;;;-145.83;84.59
7730;BME280;3908;52.310;7.230;2022-08-27T02:52:21;51313.28;;;-145.83;84.55
7730;BME280;3908;52.310;7.230;2022-08-27T02:55:08;51307.41;;;-145.83;84.39
7730;BME280;3908;52.310;7.230;2022-08-27T02:57:55;51323.06;;;-145.83;84.79
7730;BME280;3908;52.310;7.230;2022-08-27T03:00:43;51295.69;;;-145.83;84.51
7730;BME280;3908;52.310;7.230;2022-08-27T03:03:31;51334.81;;;-145.83;84.05
7730;BME280;3908;52.310;7.230;2022-08-27T03:06:19;51370.03;;;-145.83;84.38
7730;BME280;3908;52.310;7.230;2022-08-27T03:09:06;51311.31;;;-145.83;84.72
7730;BME280;3908;52.310;7.230;2022-08-27T03:11:54;51252.66;;;-145.83;84.28
7730;BME280;3908;52.310;7.230;2022-08-27T03:14:41;51289.81;;;-145.83;84.30
7730;BME280;3908;52.310;7.230;2022-08-27T03:17:29;51309.38;;;-145.83;84.39
7730;BME280;3908;52.310;7.230;2022-08-27T03:20:36;51321.09;;;-145.83;84.43
7730;BME280;3908;52.310;7.230;2022-08-27T03:23:28;51301.53;;;-145.83;84.38
7730;BME280;3908;52.310;7.230;2022-08-27T03:26:18;51317.19;;;-145.83;84.24
7730;BME280;3908;52.310;7.230;2022-08-27T03:29:05;51285.91;;;-145.83;84.12
7730;BME280;3908;52.310;7.230;2022-08-27T03:31:53;51301.53;;;-145.83;83.98
7730;BME280;3908;52.310;7.230;2022-08-27T03:34:41;51276.13;;;-145.83;83.79
7730;BME280;3908;52.310;7.230;2022-08-27T03:37:28;51344.59;;;-145.83;83.31
7730;BME280;3908;52.310;7.230;2022-08-27T03:40:17;51328.94;;;-145.83;83.69
7730;BME280;3908;52.310;7.230;2022-08-27T03:43:04;51344.59;;;-145.83;83.56
7730;BME280;3908;52.310;7.230;2022-08-27T03:45:51;51307.41;;;-145.83;83.78
7730;BME280;3908;52.310;7.230;2022-08-27T03:48:39;51364.16;;;-145.83;83.50
7730;BME280;3908;52.310;7.230;2022-08-27T03:51:26;51315.25;;;-145.83;83.20
7730;BME280;3908;52.310;7.230;2022-08-27T03:54:13;51299.59;;;-145.83;83.21
7730;BME280;3908;52.310;7.230;2022-08-27T03:57:01;51301.53;;;-145.83;83.11
7730;BME280;3908;52.310;7.230;2022-08-27T03:59:48;51338.72;;;-145.83;83.09
7730;BME280;3908;52.310;7.230;2022-08-27T04:02:35;51305.47;;;-145.83;83.13
7730;BME280;3908;52.310;7.230;2022-08-27T04:05:23;51299.59;;;-145.83;82.74
7730;BME280;3908;52.310;7.230;2022-08-27T04:08:10;51311.31;;;-145.83;82.50
7730;BME280;3908;52.310;7.230;2022-08-27T04:10:57;51326.97;;;-145.83;82.39
7730;BME280;3908;52.310;7.230;2022-08-27T04:13:45;51311.31;;;-145.83;82.59
7730;BME280;3908;52.310;7.230;2022-08-27T04:16:33;51287.84;;;-145.83;82.78
7730;BME280;3908;52.310;7.230;2022-08-27T04:19:21;51319.16;;;-145.83;82.73
7730;BME280;3908;52.310;7.230;2022-08-27T04:22:08;51330.91;;;-145.83;82.55
7730;BME280;3908;52.310;7.230;2022-08-27T04:24:55;51328.94;;;-145.83;82.47
7730;BME280;3908;52.310;7.230;2022-08-27T04:27:42;51342.63;;;-145.83;82.43
7730;BME280;3908;52.310;7.230;2022-08-27T04:30:31;51338.72;;;-145.83;82.47
7730;BME280;3908;52.310;7.230;2022-08-27T04:33:18;51325.03;;;-145.83;82.43
7730;BME280;3908;52.310;7.230;2022-08-27T04:36:09;51321.09;;;-145.83;82.26
7730;BME280;3908;52.310;7.230;2022-08-27T04:38:56;51328.94;;;-145.83;82.09
7730;BME280;3908;52.310;7.230;2022-08-27T04:41:43;51321.09;;;-145.83;82.17
7730;BME280;3908;52.310;7.230;2022-08-27T04:44:31;51370.03;;;-145.83;81.99
7730;BME280;3908;52.310;7.230;2022-08-27T04:47:20;51315.25;;;-145.83;82.29
7730;BME280;3908;52.310;7.230;2022-08-27T04:50:07;51305.47;;;-145.83;82.06
7730;BME280;3908;52.310;7.230;2022-08-27T04:52:54;51317.19;;;-145.83;81.80
7730;BME280;3908;52.310;7.230;2022-08-27T04:55:42;51321.09;;;-145.83;82.07
7730;BME280;3908;52.310;7.230;2022-08-27T04:58:29;51321.09;;;-145.83;82.23
7730;BME280;3908;52.310;7.230;2022-08-27T05:01:17;51315.25;;;-145.83;81.96
7730;BME280;3908;52.310;7.230;2022-08-27T05:04:06;51307.41;;;-145.83;82.16
7730;BME280;3908;52.310;7.230;2022-08-27T05:06:54;51297.63;;;-145.83;82.15
7730;BME280;3908;52.310;7.230;2022-08-27T05:09:41;51297.63;;;-145.83;82.14
7730;BME280;3908;52.310;7.230;2022-08-27T05:12:27;51278.06;;;-145.83;82.23
7730;BME280;3908;52.310;7.230;2022-08-27T05:15:15;51311.31;;;-145.83;82.23
7730;BME280;3908;52.310;7.230;2022-08-27T05:18:02;51342.63;;;-145.83;82.20
7730;BME280;3908;52.310;7.230;2022-08-27T05:20:51;51344.59;;;-145.83;81.96
7730;BME280;3908;52.310;7.230;2022-08-27T05:23:38;51311.31;;;-145.83;81.79
7730;BME280;3908;52.310;7.230;2022-08-27T05:26:25;51315.25;;;-145.83;81.89
7730;BME280;3908;52.310;7.230;2022-08-27T05:29:12;51321.09;;;-145.83;81.13
7730;BME280;3908;52.310;7.230;2022-08-27T05:31:59;51332.84;;;-145.83;81.26
7730;BME280;3908;52.310;7.230;2022-08-27T05:34:47;51305.47;;;-145.83;81.26
7730;BME280;3908;52.310;7.230;2022-08-27T05:37:35;51348.50;;;-145.83;80.91
7730;BME280;3908;52.310;7.230;2022-08-27T05:40:22;51321.09;;;-145.83;80.53
7730;BME280;3908;52.310;7.230;2022-08-27T05:43:10;51321.09;;;-145.83;80.95
7730;BME280;3908;52.310;7.230;2022-08-27T05:46:01;51317.19;;;-145.83;80.70
7730;BME280;3908;52.310;7.230;2022-08-27T05:48:50;51358.28;;;-145.83;80.48
7730;BME280;3908;52.310;7.230;2022-08-27T05:51:37;51305.47;;;-145.83;80.43
7730;BME280;3908;52.310;7.230;2022-08-27T05:54:26;51321.09;;;-145.83;80.10
7730;BME280;3908;52.310;7.230;2022-08-27T05:57:13;51326.97;;;-145.83;79.78
7730;BME280;3908;52.310;7.230;2022-08-27T06:00:00;51285.91;;;-145.83;79.93
7730;BME280;3908;52.310;7.230;2022-08-27T06:03:05;51325.03;;;-145.83;78.95
7730;BME280;3908;52.310;7.230;2022-08-27T06:05:58;51325.03;;;-145.83;78.84
7730;BME280;3908;52.310;7.230;2022-08-27T06:08:45;51311.31;;;-145.83;78.05
7730;BME280;3908;52.310;7.230;2022-08-27T06:11:34;51309.38;;;-145.83;77.96
7730;BME280;3908;52.310;7.230;2022-08-27T06:14:22;51328.94;;;-145.83;77.65
7730;BME280;3908;52.310;7.230;2022-08-27T06:17:09;51301.53;;;-145.83;77.55
7730;BME280;3908;52.310;7.230;2022-08-27T06:19:56;51379.81;;;-145.83;77.24
7730;BME280;3908;52.310;7.230;2022-08-27T06:22:43;51325.03;;;-145.83;76.43
7730;BME280;3908;52.310;7.230;2022-08-27T06:25:30;51315.25;;;-145.83;76.73
7730;BME280;3908;52.310;7.230;2022-08-27T06:28:21;51323.06;;;-145.83;76.10
7730;BME280;3908;52.310;7.230;2022-08-27T06:31:11;51338.72;;;-145.83;76.59
7730;BME280;3908;52.310;7.230;2022-08-27T06:34:00;51348.50;;;-145.83;76.72
7730;BME280;3908;52.310;7.230;2022-08-27T06:36:47;51321.09;;;-145.83;75.72
7730;BME280;3908;52.310;7.230;2022-08-27T06:39:36;51328.94;;;-145.83;75.84
7730;BME280;3908;52.310;7.230;2022-08-27T06:42:23;51334.81;;;-145.83;75.35
7730;BME280;3908;52.310;7.230;2022-08-27T06:45:12;51356.31;;;-145.83;75.91
7730;BME280;3908;52.310;7.230;2022-08-27T06:48:00;51295.69;;;-145.83;75.78
7730;BME280;3908;52.310;7.230;2022-08-27T06:50:47;51305.47;;;-145.83;75.88
7730;BME280;3908;52.310;7.230;2022-08-27T06:53:34;51334.81;;;-145.83;76.47
7730;BME280;3908;52.310;7.230;2022-08-27T06:56:21;51344.59;;;-145.83;76.26
7730;BME280;3908;52.310;7.230;2022-08-27T06:59:10;51368.06;;;-145.83;76.60
7730;BME280;3908;52.310;7.230;2022-08-27T07:01:59;51319.16;;;-145.83;76.65
7730;BME280;3908;52.310;7.230;2022-08-27T07:04:46;51330.91;;;-145.83;76.07
7730;BME280;3908;52.310;7.230;2022-08-27T07:07:33;51299.59;;;-145.83;76.04
7730;BME280;3908;52.310;7.230;2022-08-27T07:10:20;51319.16;;;-145.83;75.83
7730;BME280;3908;52.310;7.230;2022-08-27T07:13:07;51344.59;;;-145.83;75.69
7730;BME280;3908;52.310;7.230;2022-08-27T07:15:55;51291.75;;;-145.83;75.54
7730;BME280;3908;52.310;7.230;2022-08-27T07:18:43;51342.63;;;-145.83;75.33
7730;BME280;3908;52.310;7.230;2022-08-27T07:21:32;51344.59;;;-145.83;75.51
7730;BME280;3908;52.310;7.230;2022-08-27T07:24:19;51328.94;;;-145.83;75.50
7730;BME280;3908;52.310;7.230;2022-08-27T07:27:06;51346.53;;;-145.83;74.89
7730;BME280;3908;52.310;7.230;2022-08-27T07:29:53;51344.59;;;-145.83;74.49
7730;BME280;3908;52.310;7.230;2022-08-27T07:32:41;51373.94;;;-145.83;73.93
7730;BME280;3908;52.310;7.230;2022-08-27T07:35:29;51326.97;;;-145.83;74.25
7730;BME280;3908;52.310;7.230;2022-08-27T07:38:17;51354.38;;;-145.83;73.49
7730;BME280;3908;52.310;7.230;2022-08-27T07:41:05;51362.19;;;-145.83;73.37
7730;BME280;3908;52.310;7.230;2022-08-27T07:43:52;51340.69;;;-145.83;73.80
7730;BME280;3908;52.310;7.230;2022-08-27T07:46:56;51370.03;;;-145.83;72.71
7730;BME280;3908;52.310;7.230;2022-08-27T07:49:43;51350.47;;;-145.83;72.23
7730;BME280;3908;52.310;7.230;2022-08-27T07:52:32;51330.91;;;-145.83;70.80
7730;BME280;3908;52.310;7.230;2022-08-27T07:55:19;51348.50;;;-145.83;68.95
7730;BME280;3908;52.310;7.230;2022-08-27T07:58:06;51346.53;;;-145.83;67.39
7730;BME280;3908;52.310;7.230;2022-08-27T08:00:54;51368.06;;;-145.83;66.62
7730;BME280;3908;52.310;7.230;2022-08-27T08:03:41;51350.47;;;-145.83;66.73
7730;BME280;3908;52.310;7.230;2022-08-27T08:06:29;51338.72;;;-145.83;64.81
7730;BME280;3908;52.310;7.230;2022-08-27T08:09:17;51368.06;;;-145.83;64.22
7730;BME280;3908;52.310;7.230;2022-08-27T08:12:06;51328.94;;;-145.83;63.54
7730;BME280;3908;52.310;7.230;2022-08-27T08:14:53;51342.63;;;-145.83;64.09
7730;BME280;3908;52.310;7.230;2022-08-27T08:17:43;51330.91;;;-145.83;65.18
7730;BME280;3908;52.310;7.230;2022-08-27T08:20:30;51352.41;;;-145.83;65.62
7730;BME280;3908;52.310;7.230;2022-08-27T08:23:18;51346.53;;;-145.83;66.36
7730;BME280;3908;52.310;7.230;2022-08-27T08:26:07;51397.41;;;-145.83;67.07
7730;BME280;3908;52.310;7.230;2022-08-27T08:28:54;51377.84;;;-145.83;65.55
7730;BME280;3908;52.310;7.230;2022-08-27T08:31:42;51393.50;;;-145.83;65.99
7730;BME280;3908;52.310;7.230;2022-08-27T08:34:29;51387.63;;;-145.83;65.99
7730;BME280;3908;52.310;7.230;2022-08-27T08:37:16;51340.69;;;-145.83;66.88
7730;BME280;3908;52.310;7.230;2022-08-27T08:40:05;51385.66;;;-145.83;66.78
7730;BME280;3908;52.310;7.230;2022-08-27T08:42:54;51356.31;;;-145.83;66.29
7730;BME280;3908;52.310;7.230;2022-08-27T08:45:42;51362.19;;;-145.83;67.34
7730;BME280;3908;52.310;7.230;2022-08-27T08:48:31;51336.75;;;-145.83;67.29
7730;BME280;3908;52.310;7.230;2022-08-27T08:51:23;51358.28;;;-145.83;67.25
7730;BME280;3908;52.310;7.230;2022-08-27T08:54:15;51346.53;;;-145.83;67.09
7730;BME280;3908;52.310;7.230;2022-08-27T08:57:07;51354.38;;;-145.83;67.12
7730;BME280;3908;52.310;7.230;2022-08-27T09:00:05;51358.28;;;-145.83;67.79
7730;BME280;3908;52.310;7.230;2022-08-27T09:02:54;51319.16;;;-145.83;66.53
7730;BME280;3908;52.310;7.230;2022-08-27T09:05:45;51342.63;;;-145.83;66.26
7730;BME280;3908;52.310;7.230;2022-08-27T09:08:36;51415.00;;;-145.83;65.88
7730;BME280;3908;52.310;7.230;2022-08-27T09:11:27;51354.38;;;-145.83;64.53
7730;BME280;3908;52.310;7.230;2022-08-27T09:14:24;51338.72;;;-145.83;63.52
7730;BME280;3908;52.310;7.230;2022-08-27T09:17:14;51370.03;;;-145.83;62.92
7730;BME280;3908;52.310;7.230;2022-08-27T09:20:04;51342.63;;;-145.83;61.88
7730;BME280;3908;52.310;7.230;2022-08-27T09:22:56;51368.06;;;-145.83;61.81
7730;BME280;3908;52.310;7.230;2022-08-27T09:25:55;51342.63;;;-145.83;62.64
7730;BME280;3908;52.310;7.230;2022-08-27T09:28:54;51332.84;;;-145.83;62.06
7730;BME280;3908;52.310;7.230;2022-08-27T09:32:04;51354.38;;;-145.83;59.95
7730;BME280;3908;52.310;7.230;2022-08-27T09:34:56;51356.31;;;-145.83;57.87
7730;BME280;3908;52.310;7.230;2022-08-27T09:37:46;51385.66;;;-145.83;56.98
7730;BME280;3908;52.310;7.230;2022-08-27T09:40:40;51444.34;;;-145.83;56.49
7730;BME280;3908;52.310;7.230;2022-08-27T09:43:29;51403.28;;;-145.83;56.45
7730;BME280;3908;52.310;7.230;2022-08-27T09:46:19;51395.44;;;-145.83;55.02
7730;BME280;3908;52.310;7.230;2022-08-27T09:49:12;51375.88;;;-145.83;55.82
7730;BME280;3908;52.310;7.230;2022-08-27T09:52:01;51379.81;;;-145.83;55.53
7730;BME280;3908;52.310;7.230;2022-08-27T09:54:50;51467.84;;;-145.83;54.42
7730;BME280;3908;52.310;7.230;2022-08-27T09:57:40;51436.53;;;-145.83;53.89
7730;BME280;3908;52.310;7.230;2022-08-27T10:00:35;51444.34;;;-145.83;52.72
7730;BME280;3908;52.310;7.230;2022-08-27T10:03:22;51456.09;;;-145.83;55.15
7730;BME280;3908;52.310;7.230;2022-08-27T10:06:10;51424.78;;;-145.83;52.77
7730;BME280;3908;52.310;7.230;2022-08-27T10:09:04;51432.63;;;-145.83;51.84
7730;BME280;3908;52.310;7.230;2022-08-27T10:11:58;51387.63;;;-145.83;53.10
7730;BME280;3908;52.310;7.230;2022-08-27T10:14:51;51434.56;;;-145.83;53.62
7730;BME280;3908;52.310;7.230;2022-08-27T10:17:45;51422.84;;;-145.83;55.28
7730;BME280;3908;52.310;7.230;2022-08-27T10:20:40;51407.19;;;-145.83;55.48
7730;BME280;3908;52.310;7.230;2022-08-27T10:23:39;51383.72;;;-145.83;55.60
7730;BME280;3908;52.310;7.230;2022-08-27T10:26:33;51446.31;;;-145.83;55.67
7730;BME280;3908;52.310;7.230;2022-08-27T10:29:30;51401.31;;;-145.83;54.47
7730;BME280;3908;52.310;7.230;2022-08-27T10:32:32;51409.16;;;-145.83;54.80
7730;BME280;3908;52.310;7.230;2022-08-27T10:35:30;51413.06;;;-145.83;55.06
7730;BME280;3908;52.310;7.230;2022-08-27T10:38:22;51385.66;;;-145.83;55.42
7730;BME280;3908;52.310;7.230;2022-08-27T10:41:16;51395.44;;;-145.83;55.57
7730;BME280;3908;52.310;7.230;2022-08-27T10:44:31;51420.88;;;-145.83;55.99
7730;BME280;3908;52.310;7.230;2022-08-27T10:47:29;51395.44;;;-145.83;55.14
7730;BME280;3908;52.310;7.230;2022-08-27T10:50:26;51413.06;;;-145.83;56.92
7730;BME280;3908;52.310;7.230;2022-08-27T10:53:23;51385.66;;;-145.83;57.21
7730;BME280;3908;52.310;7.230;2022-08-27T10:56:26;51416.97;;;-145.83;57.92
7730;BME280;3908;52.310;7.230;2022-08-27T10:59:23;51385.66;;;-145.83;57.42
7730;BME280;3908;52.310;7.230;2022-08-27T11:02:21;51389.59;;;-145.83;57.55
7730;BME280;3908;52.310;7.230;2022-08-27T11:05:17;51397.41;;;-145.83;56.96
7730;BME280;3908;52.310;7.230;2022-08-27T11:08:08;51395.44;;;-145.83;56.28
7730;BME280;3908;52.310;7.230;2022-08-27T11:11:04;51416.97;;;-145.83;57.28
7730;BME280;3908;52.310;7.230;2022-08-27T11:13:57;51430.66;;;-145.83;57.64
7730;BME280;3908;52.310;7.230;2022-08-27T11:16:48;51387.63;;;-145.83;57.06
7730;BME280;3908;52.310;7.230;2022-08-27T11:19:46;51381.75;;;-145.83;58.49
7730;BME280;3908;52.310;7.230;2022-08-27T11:22:41;51389.59;;;-145.83;58.05
7730;BME280;3908;52.310;7.230;2022-08-27T11:25:44;51370.03;;;-145.83;57.98
7730;BME280;3908;52.310;7.230;2022-08-27T11:28:38;51377.84;;;-145.83;58.13
7730;BME280;3908;52.310;7.230;2022-08-27T11:31:32;51387.63;;;-145.83;57.50
7730;BME280;3908;52.310;7.230;2022-08-27T11:34:26;51371.97;;;-145.83;57.94
7730;BME280;3908;52.310;7.230;2022-08-27T11:37:43;51440.44;;;-145.83;56.65
7730;BME280;3908;52.310;7.230;2022-08-27T11:40:43;51389.59;;;-145.83;56.36
7730;BME280;3908;52.310;7.230;2022-08-27T11:43:36;51403.28;;;-145.83;56.06
7730;BME280;3908;52.310;7.230;2022-08-27T11:46:25;51389.59;;;-145.83;56.50
7730;BME280;3908;52.310;7.230;2022-08-27T11:49:24;51373.94;;;-145.83;56.71
7730;BME280;3908;52.310;7.230;2022-08-27T11:52:21;51383.72;;;-145.83;56.58
7730;BME280;3908;52.310;7.230;2022-08-27T11:55:21;51377.84;;;-145.83;56.82
7730;BME280;3908;52.310;7.230;2022-08-27T11:58:23;51393.50;;;-145.83;57.41
7730;BME280;3908;52.310;7.230;2022-08-27T12:01:15;51381.75;;;-145.83;56.27
7730;BME280;3908;52.310;7.230;2022-08-27T12:04:06;51383.72;;;-145.83;55.32
7730;BME280;3908;52.310;7.230;2022-08-27T12:07:00;51426.75;;;-145.83;55.63
7730;BME280;3908;52.310;7.230;2022-08-27T12:10:12;51411.09;;;-145.83;54.90
7730;BME280;3908;52.310;7.230;2022-08-27T12:13:13;51418.94;;;-145.83;54.93
7730;BME280;3908;52.310;7.230;2022-08-27T12:16:12;51391.53;;;-145.83;54.98
7730;BME280;3908;52.310;7.230;2022-08-27T12:19:12;51399.38;;;-145.83;53.88
7730;BME280;3908;52.310;7.230;2022-08-27T12:22:21;51430.66;;;-145.83;54.09
7730;BME280;3908;52.310;7.230;2022-08-27T12:25:21;51420.88;;;-145.83;54.36
7730;BME280;3908;52.310;7.230;2022-08-27T12:28:09;51397.41;;;-145.83;54.59
7730;BME280;3908;52.310;7.230;2022-08-27T12:30:56;51411.09;;;-145.83;54.29
7730;BME280;3908;52.310;7.230;2022-08-27T12:33:45;51405.22;;;-145.83;54.40
7730;BME280;3908;52.310;7.230;2022-08-27T12:36:33;51401.31;;;-145.83;53.92
7730;BME280;3908;52.310;7.230;2022-08-27T12:39:24;51422.84;;;-145.83;54.17
7730;BME280;3908;52.310;7.230;2022-08-27T12:42:16;51407.19;;;-145.83;55.07
7730;BME280;3908;52.310;7.230;2022-08-27T12:45:05;51391.53;;;-145.83;54.13
7730;BME280;3908;52.310;7.230;2022-08-27T12:47:53;51395.44;;;-145.83;53.18
7730;BME280;3908;52.310;7.230;2022-08-27T12:50:41;51442.41;;;-145.83;52.79
7730;BME280;3908;52.310;7.230;2022-08-27T12:53:43;51393.50;;;-145.83;52.42
7730;BME280;3908;52.310;7.230;2022-08-27T12:56:45;51389.59;;;-145.83;51.95
7730;BME280;3908;52.310;7.230;2022-08-27T13:00:04;51385.66;;;-145.83;52.83
7730;BME280;3908;52.310;7.230;2022-08-27T13:03:16;51416.97;;;-145.83;53.70
7730;BME280;3908;52.310;7.230;2022-08-27T13:06:13;51401.31;;;-145.83;54.23
7730;BME280;3908;52.310;7.230;2022-08-27T13:09:03;51397.41;;;-145.83;54.21
7730;BME280;3908;52.310;7.230;2022-08-27T13:11:51;51413.06;;;-145.83;54.94
7730;BME280;3908;52.310;7.230;2022-08-27T13:14:41;51397.41;;;-145.83;54.84
7730;BME280;3908;52.310;7.230;2022-08-27T13:17:30;51395.44;;;-145.83;54.94
7730;BME280;3908;52.310;7.230;2022-08-27T13:20:20;51452.19;;;-145.83;54.57
7730;BME280;3908;52.310;7.230;2022-08-27T13:23:12;51411.09;;;-145.83;52.98
7730;BME280;3908;52.310;7.230;2022-08-27T13:26:04;51391.53;;;-145.83;53.27
7730;BME280;3908;52.310;7.230;2022-08-27T13:28:52;51413.06;;;-145.83;53.16
7730;BME280;3908;52.310;7.230;2022-08-27T13:31:40;51370.03;;;-145.83;53.45
7730;BME280;3908;52.310;7.230;2022-08-27T13:34:33;51418.94;;;-145.83;53.07
7730;BME280;3908;52.310;7.230;2022-08-27T13:37:24;51389.59;;;-145.83;53.02
7730;BME280;3908;52.310;7.230;2022-08-27T13:40:22;51409.16;;;-145.83;52.28
7730;BME280;3908;52.310;7.230;2022-08-27T13:43:13;51387.63;;;-145.83;52.48
7730;BME280;3908;52.310;7.230;2022-08-27T13:46:05;51411.09;;;-145.83;52.82
7730;BME280;3908;52.310;7.230;2022-08-27T13:48:54;51413.06;;;-145.83;53.88
7730;BME280;3908;52.310;7.230;2022-08-27T13:51:44;51391.53;;;-145.83;52.47
7730;BME280;3908;52.310;7.230;2022-08-27T13:54:32;51422.84;;;-145.83;52.54
7730;BME280;3908;52.310;7.230;2022-08-27T13:57:23;51415.00;;;-145.83;52.16
7730;BME280;3908;52.310;7.230;2022-08-27T14:00:16;51403.28;;;-145.83;53.14
7730;BME280;3908;52.310;7.230;2022-08-27T14:03:22;51440.44;;;-145.83;53.10
7730;BME280;3908;52.310;7.230;2022-08-27T14:06:10;51428.72;;;-145.83;52.76
7730;BME280;3908;52.310;7.230;2022-08-27T14:09:16;51418.94;;;-145.83;53.41
7730;BME280;3908;52.310;7.230;2022-08-27T14:12:05;51428.72;;;-145.83;54.03
7730;BME280;3908;52.310;7.230;2022-08-27T14:14:53;51379.81;;;-145.83;54.35
7730;BME280;3908;52.310;7.230;2022-08-27T14:17:41;51407.19;;;-145.83;53.73
7730;BME280;3908;52.310;7.230;2022-08-27T14:20:30;51420.88;;;-145.83;53.81
7730;BME280;3908;52.310;7.230;2022-08-27T14:23:21;51397.41;;;-145.83;54.30
7730;BME280;3908;52.310;7.230;2022-08-27T14:26:10;51418.94;;;-145.83;54.97
7730;BME280;3908;52.310;7.230;2022-08-27T14:28:57;51393.50;;;-145.83;53.57
7730;BME280;3908;52.310;7.230;2022-08-27T14:31:44;51409.16;;;-145.83;54.11
7730;BME280;3908;52.310;7.230;2022-08-27T14:34:31;51411.09;;;-145.83;53.64
7730;BME280;3908;52.310;7.230;2022-08-27T14:37:18;51403.28;;;-145.83;53.91
7730;BME280;3908;52.310;7.230;2022-08-27T14:40:07;51401.31;;;-145.83;53.18
7730;BME280;3908;52.310;7.230;2022-08-27T14:42:56;51413.06;;;-145.83;52.06
7730;BME280;3908;52.310;7.230;2022-08-27T14:45:45;51397.41;;;-145.83;52.27
7730;BME280;3908;52.310;7.230;2022-08-27T14:48:33;51407.19;;;-145.83;51.72
7730;BME280;3908;52.310;7.230;2022-08-27T14:51:24;51403.28;;;-145.83;51.98
7730;BME280;3908;52.310;7.230;2022-08-27T14:54:12;51379.81;;;-145.83;52.90
7730;BME280;3908;52.310;7.230;2022-08-27T14:56:59;51371.97;;;-145.83;54.26
7730;BME280;3908;52.310;7.230;2022-08-27T14:59:48;51377.84;;;-145.83;54.64
7730;BME280;3908;52.310;7.230;2022-08-27T15:02:38;51391.53;;;-145.83;55.14